Fort Davis, Texas
Current Conditions -  °F | °C
As of 8:55 PM on Tuesday 25 Nov 2014 (Local Time) from KMRF Reporting Station
Clear Clear  
Wind Chill: 27°   Ceiling: Unl
Heat Index: 34°   Visibility: 10mi
Dew Point:   Wind: 8mph
Humidity: 35%   Direction: 170°S
Pressure: 30.3"   Gusts: NA
Location:  30.59°N, 103.9°W
Report Text: KMRF 260255Z AUTO 17007KT 10SM CLR 01/M13 A3030 RMK AO1 52003
Loading
Personal Weather Stations






























Interactive Weather Map New forecast layout! Learn more

10-Day Weather Forecast

Advertisements
Track Severe Weather on mobile